sensor_id;sensor_type;location;lat;lon;timestamp;P1;durP1;ratioP1;P2;durP2;ratioP2
16312;SDS011;8265;52.622;13.296;2024-03-02T00:04:59;21.30;;;5.60;;
16312;SDS011;8265;52.622;13.296;2024-03-02T00:10:21;7.60;;;5.90;;
16312;SDS011;8265;52.622;13.296;2024-03-02T00:15:47;7.50;;;6.00;;
16312;SDS011;8265;52.622;13.296;2024-03-02T00:21:02;12.20;;;6.90;;
16312;SDS011;8265;52.622;13.296;2024-03-02T00:26:23;27.70;;;7.10;;
16312;SDS011;8265;52.622;13.296;2024-03-02T00:31:44;19.60;;;14.00;;
16312;SDS011;8265;52.622;13.296;2024-03-02T00:37:05;4.50;;;3.90;;
16312;SDS011;8265;52.622;13.296;2024-03-02T00:42:26;13.40;;;9.60;;
16312;SDS011;8265;52.622;13.296;2024-03-02T00:47:47;13.10;;;11.60;;
16312;SDS011;8265;52.622;13.296;2024-03-02T00:53:10;10.40;;;4.90;;
16312;SDS011;8265;52.622;13.296;2024-03-02T00:58:29;12.00;;;4.90;;
16312;SDS011;8265;52.622;13.296;2024-03-02T01:03:50;11.80;;;7.10;;
16312;SDS011;8265;52.622;13.296;2024-03-02T01:09:11;7.70;;;5.00;;
16312;SDS011;8265;52.622;13.296;2024-03-02T01:14:32;9.70;;;8.70;;
16312;SDS011;8265;52.622;13.296;2024-03-02T01:19:53;15.00;;;7.00;;
16312;SDS011;8265;52.622;13.296;2024-03-02T01:25:14;11.90;;;9.90;;
16312;SDS011;8265;52.622;13.296;2024-03-02T01:30:35;8.90;;;7.90;;
16312;SDS011;8265;52.622;13.296;2024-03-02T01:35:56;25.50;;;7.70;;
16312;SDS011;8265;52.622;13.296;2024-03-02T01:41:17;11.90;;;9.40;;
16312;SDS011;8265;52.622;13.296;2024-03-02T01:46:38;11.60;;;9.00;;
16312;SDS011;8265;52.622;13.296;2024-03-02T01:51:59;11.70;;;7.70;;
16312;SDS011;8265;52.622;13.296;2024-03-02T01:57:19;18.00;;;8.50;;
16312;SDS011;8265;52.622;13.296;2024-03-02T02:02:40;16.50;;;6.80;;
16312;SDS011;8265;52.622;13.296;2024-03-02T02:08:01;11.40;;;6.30;;
16312;SDS011;8265;52.622;13.296;2024-03-02T02:13:22;13.00;;;9.50;;
16312;SDS011;8265;52.622;13.296;2024-03-02T02:18:43;6.10;;;5.10;;
16312;SDS011;8265;52.622;13.296;2024-03-02T02:24:04;15.30;;;7.40;;
16312;SDS011;8265;52.622;13.296;2024-03-02T02:29:25;11.80;;;6.40;;
16312;SDS011;8265;52.622;13.296;2024-03-02T02:34:46;13.90;;;9.70;;
16312;SDS011;8265;52.622;13.296;2024-03-02T02:40:07;7.00;;;3.30;;
16312;SDS011;8265;52.622;13.296;2024-03-02T02:45:28;6.60;;;6.00;;
16312;SDS011;8265;52.622;13.296;2024-03-02T02:50:49;11.40;;;5.80;;
16312;SDS011;8265;52.622;13.296;2024-03-02T02:56:10;8.20;;;4.70;;
16312;SDS011;8265;52.622;13.296;2024-03-02T03:01:31;9.70;;;6.30;;
16312;SDS011;8265;52.622;13.296;2024-03-02T03:06:52;9.80;;;8.10;;
16312;SDS011;8265;52.622;13.296;2024-03-02T03:12:13;4.20;;;3.90;;
16312;SDS011;8265;52.622;13.296;2024-03-02T03:17:34;5.40;;;4.90;;
16312;SDS011;8265;52.622;13.296;2024-03-02T03:22:55;11.60;;;10.40;;
16312;SDS011;8265;52.622;13.296;2024-03-02T03:28:16;8.80;;;6.80;;
16312;SDS011;8265;52.622;13.296;2024-03-02T03:33:37;22.10;;;13.70;;
16312;SDS011;8265;52.622;13.296;2024-03-02T03:38:58;13.50;;;6.40;;
16312;SDS011;8265;52.622;13.296;2024-03-02T03:44:19;6.00;;;4.10;;
16312;SDS011;8265;52.622;13.296;2024-03-02T03:49:40;7.60;;;5.80;;
16312;SDS011;8265;52.622;13.296;2024-03-02T03:55:01;22.40;;;8.70;;
16312;SDS011;8265;52.622;13.296;2024-03-02T04:00:22;14.10;;;6.20;;
16312;SDS011;8265;52.622;13.296;2024-03-02T04:05:43;16.10;;;8.80;;
16312;SDS011;8265;52.622;13.296;2024-03-02T04:11:04;13.00;;;9.40;;
16312;SDS011;8265;52.622;13.296;2024-03-02T04:16:25;8.20;;;7.30;;
16312;SDS011;8265;52.622;13.296;2024-03-02T04:21:46;11.00;;;8.70;;
16312;SDS011;8265;52.622;13.296;2024-03-02T04:27:07;15.00;;;9.90;;
16312;SDS011;8265;52.622;13.296;2024-03-02T04:32:28;7.80;;;4.70;;
16312;SDS011;8265;52.622;13.296;2024-03-02T04:37:49;9.90;;;8.90;;
16312;SDS011;8265;52.622;13.296;2024-03-02T04:43:10;14.40;;;10.20;;
16312;SDS011;8265;52.622;13.296;2024-03-02T04:48:31;11.80;;;10.60;;
16312;SDS011;8265;52.622;13.296;2024-03-02T04:53:52;14.10;;;10.30;;
16312;SDS011;8265;52.622;13.296;2024-03-02T04:59:13;7.60;;;6.90;;
16312;SDS011;8265;52.622;13.296;2024-03-02T05:04:34;19.00;;;11.40;;
16312;SDS011;8265;52.622;13.296;2024-03-02T05:09:55;15.20;;;8.40;;
16312;SDS011;8265;52.622;13.296;2024-03-02T05:15:16;10.70;;;7.00;;
16312;SDS011;8265;52.622;13.296;2024-03-02T05:20:37;11.60;;;4.70;;
16312;SDS011;8265;52.622;13.296;2024-03-02T05:25:57;25.50;;;11.10;;
16312;SDS011;8265;52.622;13.296;2024-03-02T05:31:19;7.60;;;6.90;;
16312;SDS011;8265;52.622;13.296;2024-03-02T05:36:39;11.10;;;7.40;;
16312;SDS011;8265;52.622;13.296;2024-03-02T05:42:00;24.30;;;8.90;;
16312;SDS011;8265;52.622;13.296;2024-03-02T05:47:21;16.50;;;13.30;;
16312;SDS011;8265;52.622;13.296;2024-03-02T05:52:42;13.50;;;9.50;;
16312;SDS011;8265;52.622;13.296;2024-03-02T05:58:03;22.00;;;10.60;;
16312;SDS011;8265;52.622;13.296;2024-03-02T06:03:24;26.00;;;11.20;;
16312;SDS011;8265;52.622;13.296;2024-03-02T06:08:45;13.50;;;8.80;;
16312;SDS011;8265;52.622;13.296;2024-03-02T06:14:07;12.30;;;10.90;;
16312;SDS011;8265;52.622;13.296;2024-03-02T06:19:27;17.50;;;10.70;;
16312;SDS011;8265;52.622;13.296;2024-03-02T06:24:48;15.50;;;11.80;;
16312;SDS011;8265;52.622;13.296;2024-03-02T06:30:09;20.60;;;9.10;;
16312;SDS011;8265;52.622;13.296;2024-03-02T06:35:30;14.20;;;9.70;;
16312;SDS011;8265;52.622;13.296;2024-03-02T06:40:51;8.00;;;7.10;;
16312;SDS011;8265;52.622;13.296;2024-03-02T06:46:12;11.40;;;9.40;;
16312;SDS011;8265;52.622;13.296;2024-03-02T06:51:33;6.90;;;5.50;;
16312;SDS011;8265;52.622;13.296;2024-03-02T06:56:54;15.80;;;13.90;;
16312;SDS011;8265;52.622;13.296;2024-03-02T07:02:15;9.00;;;7.10;;
16312;SDS011;8265;52.622;13.296;2024-03-02T07:07:36;10.80;;;9.80;;
16312;SDS011;8265;52.622;13.296;2024-03-02T07:12:57;13.00;;;11.80;;
16312;SDS011;8265;52.622;13.296;2024-03-02T07:18:18;21.40;;;10.70;;
16312;SDS011;8265;52.622;13.296;2024-03-02T07:23:39;22.70;;;8.20;;
16312;SDS011;8265;52.622;13.296;2024-03-02T07:29:00;12.40;;;9.30;;
16312;SDS011;8265;52.622;13.296;2024-03-02T07:34:21;19.40;;;12.50;;
16312;SDS011;8265;52.622;13.296;2024-03-02T07:39:43;29.20;;;13.80;;
16312;SDS011;8265;52.622;13.296;2024-03-02T07:45:03;33.90;;;18.90;;
16312;SDS011;8265;52.622;13.296;2024-03-02T07:50:24;30.00;;;17.80;;
16312;SDS011;8265;52.622;13.296;2024-03-02T07:55:45;41.10;;;13.80;;
16312;SDS011;8265;52.622;13.296;2024-03-02T08:01:06;23.70;;;15.30;;
16312;SDS011;8265;52.622;13.296;2024-03-02T08:06:27;23.00;;;15.80;;
16312;SDS011;8265;52.622;13.296;2024-03-02T08:11:48;20.30;;;14.20;;
16312;SDS011;8265;52.622;13.296;2024-03-02T08:17:09;15.00;;;10.20;;
16312;SDS011;8265;52.622;13.296;2024-03-02T08:22:30;17.80;;;11.40;;
16312;SDS011;8265;52.622;13.296;2024-03-02T08:27:51;30.20;;;12.00;;
16312;SDS011;8265;52.622;13.296;2024-03-02T08:33:12;22.40;;;12.20;;
16312;SDS011;8265;52.622;13.296;2024-03-02T08:38:33;20.70;;;11.50;;
16312;SDS011;8265;52.622;13.296;2024-03-02T08:43:57;26.70;;;15.20;;
16312;SDS011;8265;52.622;13.296;2024-03-02T08:49:15;24.40;;;13.60;;
16312;SDS011;8265;52.622;13.296;2024-03-02T08:54:36;11.00;;;9.30;;
16312;SDS011;8265;52.622;13.296;2024-03-02T08:59:57;31.70;;;16.10;;
16312;SDS011;8265;52.622;13.296;2024-03-02T09:05:18;12.70;;;10.10;;
16312;SDS011;8265;52.622;13.296;2024-03-02T09:10:39;12.40;;;10.00;;
16312;SDS011;8265;52.622;13.296;2024-03-02T09:16:00;19.40;;;14.80;;
16312;SDS011;8265;52.622;13.296;2024-03-02T09:21:21;19.30;;;11.60;;
16312;SDS011;8265;52.622;13.296;2024-03-02T09:26:42;24.50;;;13.50;;
16312;SDS011;8265;52.622;13.296;2024-03-02T09:32:03;18.00;;;13.00;;
16312;SDS011;8265;52.622;13.296;2024-03-02T09:37:24;12.90;;;9.90;;
16312;SDS011;8265;52.622;13.296;2024-03-02T09:42:45;17.40;;;11.70;;
16312;SDS011;8265;52.622;13.296;2024-03-02T09:48:06;18.50;;;9.00;;
16312;SDS011;8265;52.622;13.296;2024-03-02T09:53:29;24.60;;;8.90;;
16312;SDS011;8265;52.622;13.296;2024-03-02T09:58:48;22.00;;;12.70;;
16312;SDS011;8265;52.622;13.296;2024-03-02T10:04:09;27.40;;;12.00;;
16312;SDS011;8265;52.622;13.296;2024-03-02T10:09:36;12.30;;;11.00;;
16312;SDS011;8265;52.622;13.296;2024-03-02T10:14:52;18.30;;;12.60;;
16312;SDS011;8265;52.622;13.296;2024-03-02T10:20:21;18.50;;;9.60;;
16312;SDS011;8265;52.622;13.296;2024-03-02T10:25:33;17.90;;;12.70;;
16312;SDS011;8265;52.622;13.296;2024-03-02T10:30:54;16.60;;;12.30;;
16312;SDS011;8265;52.622;13.296;2024-03-02T10:36:15;17.00;;;11.60;;
16312;SDS011;8265;52.622;13.296;2024-03-02T10:41:37;27.80;;;12.20;;
16312;SDS011;8265;52.622;13.296;2024-03-02T10:46:58;16.70;;;12.20;;
16312;SDS011;8265;52.622;13.296;2024-03-02T10:52:18;16.30;;;10.30;;
16312;SDS011;8265;52.622;13.296;2024-03-02T10:57:45;28.30;;;15.50;;
16312;SDS011;8265;52.622;13.296;2024-03-02T11:03:04;22.90;;;10.90;;
16312;SDS011;8265;52.622;13.296;2024-03-02T11:08:21;13.70;;;7.90;;
16312;SDS011;8265;52.622;13.296;2024-03-02T11:13:44;16.30;;;11.60;;
16312;SDS011;8265;52.622;13.296;2024-03-02T11:19:04;19.50;;;10.10;;
16312;SDS011;8265;52.622;13.296;2024-03-02T11:29:45;11.80;;;6.30;;
16312;SDS011;8265;52.622;13.296;2024-03-02T11:35:06;12.00;;;8.90;;
16312;SDS011;8265;52.622;13.296;2024-03-02T11:40:30;11.40;;;7.60;;
16312;SDS011;8265;52.622;13.296;2024-03-02T11:45:48;14.10;;;8.20;;
16312;SDS011;8265;52.622;13.296;2024-03-02T11:51:16;15.10;;;8.70;;
16312;SDS011;8265;52.622;13.296;2024-03-02T11:56:37;9.50;;;7.60;;
16312;SDS011;8265;52.622;13.296;2024-03-02T12:01:58;13.60;;;7.60;;
16312;SDS011;8265;52.622;13.296;2024-03-02T12:07:20;12.30;;;8.70;;
16312;SDS011;8265;52.622;13.296;2024-03-02T12:12:40;9.10;;;4.80;;
16312;SDS011;8265;52.622;13.296;2024-03-02T12:18:01;9.00;;;6.90;;
16312;SDS011;8265;52.622;13.296;2024-03-02T12:23:22;7.90;;;5.80;;
16312;SDS011;8265;52.622;13.296;2024-03-02T12:28:43;9.70;;;7.20;;
16312;SDS011;8265;52.622;13.296;2024-03-02T12:34:04;9.30;;;7.20;;
16312;SDS011;8265;52.622;13.296;2024-03-02T12:39:25;19.40;;;7.00;;
16312;SDS011;8265;52.622;13.296;2024-03-02T12:44:46;8.70;;;7.30;;
16312;SDS011;8265;52.622;13.296;2024-03-02T12:50:07;9.20;;;7.00;;
16312;SDS011;8265;52.622;13.296;2024-03-02T12:55:28;11.20;;;5.50;;
16312;SDS011;8265;52.622;13.296;2024-03-02T13:00:49;19.80;;;8.10;;
16312;SDS011;8265;52.622;13.296;2024-03-02T13:06:10;6.00;;;4.20;;
16312;SDS011;8265;52.622;13.296;2024-03-02T13:11:31;7.50;;;5.40;;
16312;SDS011;8265;52.622;13.296;2024-03-02T13:16:52;10.40;;;8.30;;
16312;SDS011;8265;52.622;13.296;2024-03-02T13:22:13;9.70;;;6.90;;
16312;SDS011;8265;52.622;13.296;2024-03-02T13:27:34;10.00;;;7.30;;
16312;SDS011;8265;52.622;13.296;2024-03-02T13:32:55;10.60;;;7.30;;
16312;SDS011;8265;52.622;13.296;2024-03-02T13:38:16;8.70;;;7.10;;
16312;SDS011;8265;52.622;13.296;2024-03-02T13:43:37;8.60;;;5.00;;
16312;SDS011;8265;52.622;13.296;2024-03-02T13:48:58;7.60;;;5.80;;
16312;SDS011;8265;52.622;13.296;2024-03-02T13:54:18;19.80;;;8.60;;
16312;SDS011;8265;52.622;13.296;2024-03-02T13:59:40;6.80;;;4.50;;
16312;SDS011;8265;52.622;13.296;2024-03-02T14:05:00;9.00;;;6.40;;
16312;SDS011;8265;52.622;13.296;2024-03-02T14:10:21;9.30;;;4.30;;
16312;SDS011;8265;52.622;13.296;2024-03-02T14:15:42;8.50;;;6.00;;
16312;SDS011;8265;52.622;13.296;2024-03-02T14:21:03;8.70;;;6.50;;
16312;SDS011;8265;52.622;13.296;2024-03-02T14:26:24;10.40;;;5.90;;
16312;SDS011;8265;52.622;13.296;2024-03-02T14:31:45;6.20;;;4.70;;
16312;SDS011;8265;52.622;13.296;2024-03-02T14:37:06;6.60;;;5.80;;
16312;SDS011;8265;52.622;13.296;2024-03-02T14:42:27;5.40;;;4.60;;
16312;SDS011;8265;52.622;13.296;2024-03-02T14:47:48;6.80;;;3.70;;
16312;SDS011;8265;52.622;13.296;2024-03-02T14:53:09;2.60;;;2.40;;
16312;SDS011;8265;52.622;13.296;2024-03-02T14:58:30;3.20;;;2.90;;
16312;SDS011;8265;52.622;13.296;2024-03-02T15:03:51;3.70;;;2.60;;
16312;SDS011;8265;52.622;13.296;2024-03-02T15:09:12;4.80;;;3.70;;
16312;SDS011;8265;52.622;13.296;2024-03-02T15:14:33;6.80;;;3.80;;
16312;SDS011;8265;52.622;13.296;2024-03-02T15:19:54;4.30;;;3.40;;
16312;SDS011;8265;52.622;13.296;2024-03-02T15:25:15;8.60;;;3.40;;
16312;SDS011;8265;52.622;13.296;2024-03-02T15:30:36;3.60;;;2.70;;
16312;SDS011;8265;52.622;13.296;2024-03-02T15:36:00;1.50;;;1.40;;
16312;SDS011;8265;52.622;13.296;2024-03-02T15:41:18;4.00;;;2.90;;
16312;SDS011;8265;52.622;13.296;2024-03-02T15:46:39;3.60;;;2.90;;
16312;SDS011;8265;52.622;13.296;2024-03-02T15:52:00;5.20;;;3.50;;
16312;SDS011;8265;52.622;13.296;2024-03-02T15:57:20;4.60;;;3.60;;
16312;SDS011;8265;52.622;13.296;2024-03-02T16:02:41;7.00;;;5.60;;
16312;SDS011;8265;52.622;13.296;2024-03-02T16:08:02;3.20;;;2.40;;
16312;SDS011;8265;52.622;13.296;2024-03-02T16:13:23;3.60;;;3.30;;
16312;SDS011;8265;52.622;13.296;2024-03-02T16:18:44;6.00;;;4.20;;
16312;SDS011;8265;52.622;13.296;2024-03-02T16:24:05;4.00;;;2.90;;
16312;SDS011;8265;52.622;13.296;2024-03-02T16:29:26;7.40;;;4.90;;
16312;SDS011;8265;52.622;13.296;2024-03-02T16:34:47;8.40;;;5.50;;
16312;SDS011;8265;52.622;13.296;2024-03-02T16:40:08;4.60;;;2.30;;
16312;SDS011;8265;52.622;13.296;2024-03-02T16:45:29;2.50;;;2.10;;
16312;SDS011;8265;52.622;13.296;2024-03-02T16:50:50;7.50;;;2.80;;
16312;SDS011;8265;52.622;13.296;2024-03-02T16:56:11;4.20;;;3.10;;
16312;SDS011;8265;52.622;13.296;2024-03-02T17:01:32;3.90;;;3.30;;
16312;SDS011;8265;52.622;13.296;2024-03-02T17:06:53;3.50;;;2.40;;
16312;SDS011;8265;52.622;13.296;2024-03-02T17:12:14;4.40;;;3.00;;
16312;SDS011;8265;52.622;13.296;2024-03-02T17:17:35;5.50;;;3.70;;
16312;SDS011;8265;52.622;13.296;2024-03-02T17:22:56;3.10;;;2.10;;
16312;SDS011;8265;52.622;13.296;2024-03-02T17:33:38;3.30;;;3.00;;
16312;SDS011;8265;52.622;13.296;2024-03-02T17:38:59;7.60;;;4.50;;
16312;SDS011;8265;52.622;13.296;2024-03-02T17:44:20;2.50;;;2.10;;
16312;SDS011;8265;52.622;13.296;2024-03-02T17:49:41;6.00;;;4.20;;
16312;SDS011;8265;52.622;13.296;2024-03-02T17:55:02;9.60;;;4.20;;
16312;SDS011;8265;52.622;13.296;2024-03-02T18:00:23;11.60;;;5.20;;
16312;SDS011;8265;52.622;13.296;2024-03-02T18:05:44;5.90;;;2.90;;
16312;SDS011;8265;52.622;13.296;2024-03-02T18:11:04;21.70;;;4.40;;
16312;SDS011;8265;52.622;13.296;2024-03-02T18:16:25;4.10;;;3.10;;
16312;SDS011;8265;52.622;13.296;2024-03-02T18:21:46;5.30;;;4.00;;
16312;SDS011;8265;52.622;13.296;2024-03-02T18:27:07;6.00;;;4.10;;
16312;SDS011;8265;52.622;13.296;2024-03-02T18:32:28;6.70;;;5.00;;
16312;SDS011;8265;52.622;13.296;2024-03-02T18:37:49;13.30;;;8.60;;
16312;SDS011;8265;52.622;13.296;2024-03-02T18:43:10;7.30;;;6.60;;
16312;SDS011;8265;52.622;13.296;2024-03-02T18:48:31;12.90;;;6.90;;
16312;SDS011;8265;52.622;13.296;2024-03-02T18:53:52;5.60;;;4.20;;
16312;SDS011;8265;52.622;13.296;2024-03-02T18:59:13;10.90;;;7.70;;
16312;SDS011;8265;52.622;13.296;2024-03-02T19:04:34;6.70;;;6.00;;
16312;SDS011;8265;52.622;13.296;2024-03-02T19:09:55;7.90;;;5.10;;
16312;SDS011;8265;52.622;13.296;2024-03-02T19:15:16;7.00;;;5.30;;
16312;SDS011;8265;52.622;13.296;2024-03-02T19:20:37;7.10;;;5.60;;
16312;SDS011;8265;52.622;13.296;2024-03-02T19:25:58;7.70;;;5.00;;
16312;SDS011;8265;52.622;13.296;2024-03-02T19:31:19;12.10;;;9.10;;
16312;SDS011;8265;52.622;13.296;2024-03-02T19:36:40;5.80;;;4.10;;
16312;SDS011;8265;52.622;13.296;2024-03-02T19:42:02;9.40;;;6.20;;
16312;SDS011;8265;52.622;13.296;2024-03-02T19:47:23;11.40;;;5.30;;
16312;SDS011;8265;52.622;13.296;2024-03-02T19:52:44;7.30;;;6.60;;
16312;SDS011;8265;52.622;13.296;2024-03-02T19:58:05;11.60;;;5.20;;
16312;SDS011;8265;52.622;13.296;2024-03-02T20:03:26;7.70;;;5.80;;
16312;SDS011;8265;52.622;13.296;2024-03-02T20:08:47;6.50;;;5.90;;
16312;SDS011;8265;52.622;13.296;2024-03-02T20:14:10;8.50;;;7.00;;
16312;SDS011;8265;52.622;13.296;2024-03-02T20:19:29;18.50;;;10.60;;
16312;SDS011;8265;52.622;13.296;2024-03-02T20:24:50;9.70;;;8.20;;
16312;SDS011;8265;52.622;13.296;2024-03-02T20:30:11;12.40;;;7.40;;
16312;SDS011;8265;52.622;13.296;2024-03-02T20:35:32;16.50;;;8.20;;
16312;SDS011;8265;52.622;13.296;2024-03-02T20:40:53;7.10;;;6.60;;
16312;SDS011;8265;52.622;13.296;2024-03-02T20:46:14;10.80;;;9.20;;
16312;SDS011;8265;52.622;13.296;2024-03-02T20:51:35;11.60;;;10.40;;
16312;SDS011;8265;52.622;13.296;2024-03-02T20:56:56;13.80;;;9.50;;
16312;SDS011;8265;52.622;13.296;2024-03-02T21:02:17;12.10;;;7.10;;
16312;SDS011;8265;52.622;13.296;2024-03-02T21:07:38;10.40;;;9.30;;
16312;SDS011;8265;52.622;13.296;2024-03-02T21:12:59;10.40;;;9.50;;
16312;SDS011;8265;52.622;13.296;2024-03-02T21:18:20;11.60;;;10.20;;
16312;SDS011;8265;52.622;13.296;2024-03-02T21:23:41;10.20;;;8.10;;
16312;SDS011;8265;52.622;13.296;2024-03-02T21:29:02;10.70;;;6.70;;
16312;SDS011;8265;52.622;13.296;2024-03-02T21:34:23;7.00;;;6.30;;
16312;SDS011;8265;52.622;13.296;2024-03-02T21:39:44;17.70;;;8.90;;
16312;SDS011;8265;52.622;13.296;2024-03-02T21:45:05;28.90;;;10.20;;
16312;SDS011;8265;52.622;13.296;2024-03-02T21:50:26;7.20;;;6.50;;
16312;SDS011;8265;52.622;13.296;2024-03-02T21:55:47;8.00;;;7.20;;
16312;SDS011;8265;52.622;13.296;2024-03-02T22:01:08;16.40;;;10.30;;
16312;SDS011;8265;52.622;13.296;2024-03-02T22:06:29;12.80;;;9.00;;
16312;SDS011;8265;52.622;13.296;2024-03-02T22:11:50;13.90;;;11.10;;
16312;SDS011;8265;52.622;13.296;2024-03-02T22:17:11;10.80;;;8.00;;
16312;SDS011;8265;52.622;13.296;2024-03-02T22:22:32;13.30;;;8.90;;
16312;SDS011;8265;52.622;13.296;2024-03-02T22:27:53;16.10;;;10.40;;
16312;SDS011;8265;52.622;13.296;2024-03-02T22:33:14;12.00;;;10.80;;
16312;SDS011;8265;52.622;13.296;2024-03-02T22:38:35;8.50;;;6.30;;
16312;SDS011;8265;52.622;13.296;2024-03-02T22:43:56;12.20;;;11.00;;
16312;SDS011;8265;52.622;13.296;2024-03-02T22:49:17;16.80;;;8.70;;
16312;SDS011;8265;52.622;13.296;2024-03-02T22:54:38;10.50;;;6.40;;
16312;SDS011;8265;52.622;13.296;2024-03-02T22:59:59;12.60;;;8.60;;
16312;SDS011;8265;52.622;13.296;2024-03-02T23:05:20;6.00;;;5.30;;
16312;SDS011;8265;52.622;13.296;2024-03-02T23:10:41;7.30;;;6.70;;
16312;SDS011;8265;52.622;13.296;2024-03-02T23:16:02;17.20;;;10.80;;
16312;SDS011;8265;52.622;13.296;2024-03-02T23:21:23;11.20;;;7.60;;
16312;SDS011;8265;52.622;13.296;2024-03-02T23:26:44;10.10;;;6.10;;
16312;SDS011;8265;52.622;13.296;2024-03-02T23:32:05;10.70;;;8.70;;
16312;SDS011;8265;52.622;13.296;2024-03-02T23:37:26;11.00;;;8.30;;
16312;SDS011;8265;52.622;13.296;2024-03-02T23:42:47;14.30;;;8.60;;
16312;SDS011;8265;52.622;13.296;2024-03-02T23:48:08;5.60;;;5.20;;
16312;SDS011;8265;52.622;13.296;2024-03-02T23:53:29;16.10;;;6.50;;
16312;SDS011;8265;52.622;13.296;2024-03-02T23:58:50;14.30;;;10.90;;
